Terminal Aerodrome Forecast
Issued by NWS Bismarck, ND

Home | Current Version | Previous Version | Text Only | Print | Product List | Glossary On
Versions: 1 2 3 4 5 6 7 8 9 10 11 12 13 14 15
000
FTUS43 KBIS 051724
TAFISN
TAF
KISN 051724Z 0518/0618 16016G24KT P6SM FEW080 SCT220
     FM060200 14010KT P6SM SCT070
     FM060800 13008KT P6SM SCT060 BKN090
     FM061000 14008KT P6SM VCSH SCT010 OVC020
     FM061200 15007KT 4SM -SHRA BR OVC018=

USA.gov is the U.S. government's official web portal to all federal, state and local government web resources and services.